White Stone, Georgia
Current Conditions -  °F | °C
As of 12:35 PM on Monday 22 Dec 2014 (Local Time) from KCNI Reporting Station
Haze Haze  
Wind Chill: 41°   Ceiling: 300
Heat Index: 45°   Visibility: 2.5mi
Dew Point: 41°   Wind: 7mph
Humidity: 87%   Direction: 90°E
Pressure: 29.97"   Gusts: 20mph
Location:  34.5554°N, 84.4928°W
Report Text: KCNI 221735Z AUTO 09006G17KT 2 1/2SM BR OVC003 07/05 A2997 RMK AO2
Loading
Personal Weather Stations






























Interactive Weather Map New forecast layout! Learn more

10-Day Weather Forecast

Advertisements
Track Severe Weather on mobile